sensor_id;sensor_type;location;lat;lon;timestamp;temperature;humidity
6178;DHT22;3122;48.208;11.174;2023-08-06T00:04:56;13.90;1.00
6178;DHT22;3122;48.208;11.174;2023-08-06T00:09:57;13.80;1.00
6178;DHT22;3122;48.208;11.174;2023-08-06T00:14:58;13.80;1.00
6178;DHT22;3122;48.208;11.174;2023-08-06T00:19:58;13.80;1.00
6178;DHT22;3122;48.208;11.174;2023-08-06T00:25:05;13.80;1.00
6178;DHT22;3122;48.208;11.174;2023-08-06T00:30:06;13.90;1.00
6178;DHT22;3122;48.208;11.174;2023-08-06T00:35:07;13.80;1.00
6178;DHT22;3122;48.208;11.174;2023-08-06T00:40:08;13.80;1.00
6178;DHT22;3122;48.208;11.174;2023-08-06T00:45:11;13.70;1.00
6178;DHT22;3122;48.208;11.174;2023-08-06T00:50:12;13.80;1.00
6178;DHT22;3122;48.208;11.174;2023-08-06T00:55:12;13.80;1.00
6178;DHT22;3122;48.208;11.174;2023-08-06T01:00:13;13.80;1.00
6178;DHT22;3122;48.208;11.174;2023-08-06T01:05:14;13.80;1.00
6178;DHT22;3122;48.208;11.174;2023-08-06T01:10:40;13.80;1.00
6178;DHT22;3122;48.208;11.174;2023-08-06T01:15:47;13.80;1.00
6178;DHT22;3122;48.208;11.174;2023-08-06T01:20:49;13.80;1.00
6178;DHT22;3122;48.208;11.174;2023-08-06T01:31:02;13.80;1.00
6178;DHT22;3122;48.208;11.174;2023-08-06T01:36:06;13.80;1.00
6178;DHT22;3122;48.208;11.174;2023-08-06T01:41:06;13.80;1.00
6178;DHT22;3122;48.208;11.174;2023-08-06T01:46:07;13.80;1.00
6178;DHT22;3122;48.208;11.174;2023-08-06T01:51:07;13.70;1.00
6178;DHT22;3122;48.208;11.174;2023-08-06T01:56:08;13.70;1.00
6178;DHT22;3122;48.208;11.174;2023-08-06T02:01:09;13.80;1.00
6178;DHT22;3122;48.208;11.174;2023-08-06T02:06:09;13.60;1.00
6178;DHT22;3122;48.208;11.174;2023-08-06T02:11:10;13.70;1.00
6178;DHT22;3122;48.208;11.174;2023-08-06T02:16:10;13.60;1.00
6178;DHT22;3122;48.208;11.174;2023-08-06T02:21:11;13.50;1.00
6178;DHT22;3122;48.208;11.174;2023-08-06T02:26:11;13.40;1.00
6178;DHT22;3122;48.208;11.174;2023-08-06T02:31:12;13.50;1.00
6178;DHT22;3122;48.208;11.174;2023-08-06T02:36:12;13.40;1.00
6178;DHT22;3122;48.208;11.174;2023-08-06T02:41:13;13.40;1.00
6178;DHT22;3122;48.208;11.174;2023-08-06T02:46:13;13.40;1.00
6178;DHT22;3122;48.208;11.174;2023-08-06T02:51:14;13.30;1.00
6178;DHT22;3122;48.208;11.174;2023-08-06T02:56:15;13.30;1.00
6178;DHT22;3122;48.208;11.174;2023-08-06T03:01:15;13.30;1.00
6178;DHT22;3122;48.208;11.174;2023-08-06T03:06:16;13.20;1.00
6178;DHT22;3122;48.208;11.174;2023-08-06T03:11:17;13.30;1.00
6178;DHT22;3122;48.208;11.174;2023-08-06T03:16:17;13.30;1.00
6178;DHT22;3122;48.208;11.174;2023-08-06T03:21:18;13.20;1.00
6178;DHT22;3122;48.208;11.174;2023-08-06T03:26:18;13.10;1.00
6178;DHT22;3122;48.208;11.174;2023-08-06T03:31:19;13.10;1.00
6178;DHT22;3122;48.208;11.174;2023-08-06T03:36:19;13.00;1.00
6178;DHT22;3122;48.208;11.174;2023-08-06T03:41:20;13.10;1.00
6178;DHT22;3122;48.208;11.174;2023-08-06T03:46:20;13.10;1.00
6178;DHT22;3122;48.208;11.174;2023-08-06T03:51:21;13.00;1.00
6178;DHT22;3122;48.208;11.174;2023-08-06T03:56:22;13.10;1.00
6178;DHT22;3122;48.208;11.174;2023-08-06T04:01:22;13.00;1.00
6178;DHT22;3122;48.208;11.174;2023-08-06T04:06:23;13.10;1.00
6178;DHT22;3122;48.208;11.174;2023-08-06T04:11:23;13.10;1.00
6178;DHT22;3122;48.208;11.174;2023-08-06T04:16:24;13.10;1.00
6178;DHT22;3122;48.208;11.174;2023-08-06T04:21:26;13.00;1.00
6178;DHT22;3122;48.208;11.174;2023-08-06T04:26:27;13.00;1.00
6178;DHT22;3122;48.208;11.174;2023-08-06T04:31:28;12.90;1.00
6178;DHT22;3122;48.208;11.174;2023-08-06T04:36:29;13.00;1.00
6178;DHT22;3122;48.208;11.174;2023-08-06T04:41:29;13.00;1.00
6178;DHT22;3122;48.208;11.174;2023-08-06T04:46:30;13.00;1.00
6178;DHT22;3122;48.208;11.174;2023-08-06T04:51:31;13.00;1.00
6178;DHT22;3122;48.208;11.174;2023-08-06T04:56:31;13.10;1.00
6178;DHT22;3122;48.208;11.174;2023-08-06T05:01:32;13.10;1.00
6178;DHT22;3122;48.208;11.174;2023-08-06T05:06:33;13.10;1.00
6178;DHT22;3122;48.208;11.174;2023-08-06T05:11:33;13.10;1.00
6178;DHT22;3122;48.208;11.174;2023-08-06T05:16:34;13.20;1.00
6178;DHT22;3122;48.208;11.174;2023-08-06T05:21:35;13.30;1.00
6178;DHT22;3122;48.208;11.174;2023-08-06T05:26:35;13.20;1.00
6178;DHT22;3122;48.208;11.174;2023-08-06T05:31:36;13.20;1.00
6178;DHT22;3122;48.208;11.174;2023-08-06T05:36:36;13.20;1.00
6178;DHT22;3122;48.208;11.174;2023-08-06T05:41:37;13.20;1.00
6178;DHT22;3122;48.208;11.174;2023-08-06T05:46:37;13.20;1.00
6178;DHT22;3122;48.208;11.174;2023-08-06T05:51:38;13.40;1.00
6178;DHT22;3122;48.208;11.174;2023-08-06T05:56:38;13.60;1.00
6178;DHT22;3122;48.208;11.174;2023-08-06T06:01:39;13.70;1.00
6178;DHT22;3122;48.208;11.174;2023-08-06T06:06:39;13.80;1.00
6178;DHT22;3122;48.208;11.174;2023-08-06T06:11:42;14.00;1.00
6178;DHT22;3122;48.208;11.174;2023-08-06T06:16:42;14.10;1.00
6178;DHT22;3122;48.208;11.174;2023-08-06T06:21:43;14.30;1.00
6178;DHT22;3122;48.208;11.174;2023-08-06T06:26:43;14.40;1.00
6178;DHT22;3122;48.208;11.174;2023-08-06T06:31:44;14.60;1.00
6178;DHT22;3122;48.208;11.174;2023-08-06T06:36:45;14.60;1.00
6178;DHT22;3122;48.208;11.174;2023-08-06T06:41:45;14.60;1.00
6178;DHT22;3122;48.208;11.174;2023-08-06T06:46:46;14.70;1.00
6178;DHT22;3122;48.208;11.174;2023-08-06T06:51:46;15.00;1.00
6178;DHT22;3122;48.208;11.174;2023-08-06T06:56:47;15.00;1.00
6178;DHT22;3122;48.208;11.174;2023-08-06T07:01:47;14.60;1.00
6178;DHT22;3122;48.208;11.174;2023-08-06T07:06:48;14.20;1.00
6178;DHT22;3122;48.208;11.174;2023-08-06T07:11:49;13.90;1.00
6178;DHT22;3122;48.208;11.174;2023-08-06T07:16:49;13.80;1.00
6178;DHT22;3122;48.208;11.174;2023-08-06T07:21:50;13.80;1.00
6178;DHT22;3122;48.208;11.174;2023-08-06T07:26:51;13.90;1.00
6178;DHT22;3122;48.208;11.174;2023-08-06T07:31:53;14.00;1.00
6178;DHT22;3122;48.208;11.174;2023-08-06T07:36:53;14.20;1.00
6178;DHT22;3122;48.208;11.174;2023-08-06T07:41:54;14.30;1.00
6178;DHT22;3122;48.208;11.174;2023-08-06T07:46:54;14.40;1.00
6178;DHT22;3122;48.208;11.174;2023-08-06T07:51:55;14.50;1.00
6178;DHT22;3122;48.208;11.174;2023-08-06T07:56:55;14.50;1.00
6178;DHT22;3122;48.208;11.174;2023-08-06T08:01:56;14.50;1.00
6178;DHT22;3122;48.208;11.174;2023-08-06T08:06:57;14.60;1.00
6178;DHT22;3122;48.208;11.174;2023-08-06T08:11:57;14.80;1.00
6178;DHT22;3122;48.208;11.174;2023-08-06T08:17:04;14.90;1.00
6178;DHT22;3122;48.208;11.174;2023-08-06T08:22:06;15.10;1.00
6178;DHT22;3122;48.208;11.174;2023-08-06T08:27:06;14.90;1.00
6178;DHT22;3122;48.208;11.174;2023-08-06T08:32:07;14.90;1.00
6178;DHT22;3122;48.208;11.174;2023-08-06T08:37:07;14.80;1.00
6178;DHT22;3122;48.208;11.174;2023-08-06T08:42:09;14.70;1.00
6178;DHT22;3122;48.208;11.174;2023-08-06T08:47:10;14.70;1.00
6178;DHT22;3122;48.208;11.174;2023-08-06T08:52:11;14.60;1.00
6178;DHT22;3122;48.208;11.174;2023-08-06T08:57:14;14.60;1.00
6178;DHT22;3122;48.208;11.174;2023-08-06T09:02:16;14.50;1.00
6178;DHT22;3122;48.208;11.174;2023-08-06T09:07:20;14.40;1.00
6178;DHT22;3122;48.208;11.174;2023-08-06T09:12:22;14.10;1.00
6178;DHT22;3122;48.208;11.174;2023-08-06T09:17:22;14.10;1.00
6178;DHT22;3122;48.208;11.174;2023-08-06T09:22:23;14.30;1.00
6178;DHT22;3122;48.208;11.174;2023-08-06T09:27:24;14.50;1.00
6178;DHT22;3122;48.208;11.174;2023-08-06T09:32:25;14.70;1.00
6178;DHT22;3122;48.208;11.174;2023-08-06T09:37:27;14.80;1.00
6178;DHT22;3122;48.208;11.174;2023-08-06T09:42:36;14.80;1.00
6178;DHT22;3122;48.208;11.174;2023-08-06T09:47:37;14.60;1.00
6178;DHT22;3122;48.208;11.174;2023-08-06T09:52:37;14.60;1.00
6178;DHT22;3122;48.208;11.174;2023-08-06T09:57:42;14.70;1.00
6178;DHT22;3122;48.208;11.174;2023-08-06T10:02:43;15.20;1.00
6178;DHT22;3122;48.208;11.174;2023-08-06T10:07:44;15.30;1.00
6178;DHT22;3122;48.208;11.174;2023-08-06T10:12:49;15.20;1.00
6178;DHT22;3122;48.208;11.174;2023-08-06T10:17:52;15.00;1.00
6178;DHT22;3122;48.208;11.174;2023-08-06T10:23:02;15.00;1.00
6178;DHT22;3122;48.208;11.174;2023-08-06T10:28:10;15.10;1.00
6178;DHT22;3122;48.208;11.174;2023-08-06T10:33:12;15.10;1.00
6178;DHT22;3122;48.208;11.174;2023-08-06T10:38:18;15.30;1.00
6178;DHT22;3122;48.208;11.174;2023-08-06T10:48:40;15.60;1.00
6178;DHT22;3122;48.208;11.174;2023-08-06T10:53:46;15.40;1.00
6178;DHT22;3122;48.208;11.174;2023-08-06T10:58:47;15.20;1.00
6178;DHT22;3122;48.208;11.174;2023-08-06T11:03:49;15.20;1.00
6178;DHT22;3122;48.208;11.174;2023-08-06T11:08:52;15.30;1.00
6178;DHT22;3122;48.208;11.174;2023-08-06T11:13:53;15.10;1.00
6178;DHT22;3122;48.208;11.174;2023-08-06T11:18:54;14.80;1.00
6178;DHT22;3122;48.208;11.174;2023-08-06T11:23:55;14.60;1.00
6178;DHT22;3122;48.208;11.174;2023-08-06T11:28:56;14.90;1.00
6178;DHT22;3122;48.208;11.174;2023-08-06T11:33:56;15.20;1.00
6178;DHT22;3122;48.208;11.174;2023-08-06T11:38:58;15.30;1.00
6178;DHT22;3122;48.208;11.174;2023-08-06T11:43:59;15.30;1.00
6178;DHT22;3122;48.208;11.174;2023-08-06T11:49:00;15.30;1.00
6178;DHT22;3122;48.208;11.174;2023-08-06T11:54:00;15.10;1.00
6178;DHT22;3122;48.208;11.174;2023-08-06T11:59:02;15.10;1.00
6178;DHT22;3122;48.208;11.174;2023-08-06T12:04:04;15.30;1.00
6178;DHT22;3122;48.208;11.174;2023-08-06T12:09:05;15.60;1.00
6178;DHT22;3122;48.208;11.174;2023-08-06T12:14:06;15.80;1.00
6178;DHT22;3122;48.208;11.174;2023-08-06T12:19:07;15.60;1.00
6178;DHT22;3122;48.208;11.174;2023-08-06T12:24:07;15.40;1.00
6178;DHT22;3122;48.208;11.174;2023-08-06T12:29:08;15.30;1.00
6178;DHT22;3122;48.208;11.174;2023-08-06T12:34:08;15.00;1.00
6178;DHT22;3122;48.208;11.174;2023-08-06T12:39:09;14.70;1.00
6178;DHT22;3122;48.208;11.174;2023-08-06T12:44:09;14.70;1.00
6178;DHT22;3122;48.208;11.174;2023-08-06T12:49:10;15.00;1.00
6178;DHT22;3122;48.208;11.174;2023-08-06T12:54:10;15.20;1.00
6178;DHT22;3122;48.208;11.174;2023-08-06T12:59:11;14.70;1.00
6178;DHT22;3122;48.208;11.174;2023-08-06T13:04:13;14.30;1.00
6178;DHT22;3122;48.208;11.174;2023-08-06T13:09:15;14.20;1.00
6178;DHT22;3122;48.208;11.174;2023-08-06T13:14:16;14.30;1.00
6178;DHT22;3122;48.208;11.174;2023-08-06T13:19:16;14.10;1.00
6178;DHT22;3122;48.208;11.174;2023-08-06T13:24:17;14.20;1.00
6178;DHT22;3122;48.208;11.174;2023-08-06T13:29:18;14.20;1.00
6178;DHT22;3122;48.208;11.174;2023-08-06T13:34:18;14.10;1.00
6178;DHT22;3122;48.208;11.174;2023-08-06T13:39:19;14.00;1.00
6178;DHT22;3122;48.208;11.174;2023-08-06T13:44:20;14.00;1.00
6178;DHT22;3122;48.208;11.174;2023-08-06T13:49:20;13.90;1.00
6178;DHT22;3122;48.208;11.174;2023-08-06T13:54:21;14.00;1.00
6178;DHT22;3122;48.208;11.174;2023-08-06T13:59:22;13.90;1.00
6178;DHT22;3122;48.208;11.174;2023-08-06T14:04:24;13.80;1.00
6178;DHT22;3122;48.208;11.174;2023-08-06T14:09:25;13.60;1.00
6178;DHT22;3122;48.208;11.174;2023-08-06T14:14:27;13.50;1.00
6178;DHT22;3122;48.208;11.174;2023-08-06T14:19:28;13.40;1.00
6178;DHT22;3122;48.208;11.174;2023-08-06T14:24:29;13.30;1.00
6178;DHT22;3122;48.208;11.174;2023-08-06T14:29:29;13.30;1.00
6178;DHT22;3122;48.208;11.174;2023-08-06T14:34:30;13.20;1.00
6178;DHT22;3122;48.208;11.174;2023-08-06T14:39:31;13.20;1.00
6178;DHT22;3122;48.208;11.174;2023-08-06T14:44:31;13.20;1.00
6178;DHT22;3122;48.208;11.174;2023-08-06T14:49:32;13.20;1.00
6178;DHT22;3122;48.208;11.174;2023-08-06T14:54:32;13.40;1.00
6178;DHT22;3122;48.208;11.174;2023-08-06T14:59:33;13.60;1.00
6178;DHT22;3122;48.208;11.174;2023-08-06T15:04:34;13.80;1.00
6178;DHT22;3122;48.208;11.174;2023-08-06T15:09:34;13.90;1.00
6178;DHT22;3122;48.208;11.174;2023-08-06T15:14:35;13.80;1.00
6178;DHT22;3122;48.208;11.174;2023-08-06T15:19:35;13.70;1.00
6178;DHT22;3122;48.208;11.174;2023-08-06T15:24:36;13.40;1.00
6178;DHT22;3122;48.208;11.174;2023-08-06T15:29:41;13.10;1.00
6178;DHT22;3122;48.208;11.174;2023-08-06T15:34:43;12.90;1.00
6178;DHT22;3122;48.208;11.174;2023-08-06T15:39:43;12.70;1.00
6178;DHT22;3122;48.208;11.174;2023-08-06T15:44:44;12.80;1.00
6178;DHT22;3122;48.208;11.174;2023-08-06T15:49:45;12.90;1.00
6178;DHT22;3122;48.208;11.174;2023-08-06T15:54:45;13.00;1.00
6178;DHT22;3122;48.208;11.174;2023-08-06T15:59:46;12.90;1.00
6178;DHT22;3122;48.208;11.174;2023-08-06T16:04:46;13.00;1.00
6178;DHT22;3122;48.208;11.174;2023-08-06T16:09:47;12.50;1.00
6178;DHT22;3122;48.208;11.174;2023-08-06T16:14:48;12.40;1.00
6178;DHT22;3122;48.208;11.174;2023-08-06T16:19:49;12.20;1.00
6178;DHT22;3122;48.208;11.174;2023-08-06T16:24:50;12.00;1.00
6178;DHT22;3122;48.208;11.174;2023-08-06T16:29:51;12.10;1.00
6178;DHT22;3122;48.208;11.174;2023-08-06T16:34:52;12.30;1.00
6178;DHT22;3122;48.208;11.174;2023-08-06T16:39:53;12.30;1.00
6178;DHT22;3122;48.208;11.174;2023-08-06T16:44:53;12.60;1.00
6178;DHT22;3122;48.208;11.174;2023-08-06T16:49:54;12.60;1.00
6178;DHT22;3122;48.208;11.174;2023-08-06T16:54:54;12.60;1.00
6178;DHT22;3122;48.208;11.174;2023-08-06T16:59:55;12.60;1.00
6178;DHT22;3122;48.208;11.174;2023-08-06T17:04:56;12.60;1.00
6178;DHT22;3122;48.208;11.174;2023-08-06T17:09:56;12.60;1.00
6178;DHT22;3122;48.208;11.174;2023-08-06T17:14:57;12.60;1.00
6178;DHT22;3122;48.208;11.174;2023-08-06T17:19:59;12.80;1.00
6178;DHT22;3122;48.208;11.174;2023-08-06T17:25:00;13.00;1.00
6178;DHT22;3122;48.208;11.174;2023-08-06T17:30:01;12.90;1.00
6178;DHT22;3122;48.208;11.174;2023-08-06T17:35:02;13.20;1.00
6178;DHT22;3122;48.208;11.174;2023-08-06T17:40:03;13.40;1.00
6178;DHT22;3122;48.208;11.174;2023-08-06T17:45:04;13.30;1.00
6178;DHT22;3122;48.208;11.174;2023-08-06T17:50:05;13.10;1.00
6178;DHT22;3122;48.208;11.174;2023-08-06T17:55:07;12.90;1.00
6178;DHT22;3122;48.208;11.174;2023-08-06T18:00:08;12.80;1.00
6178;DHT22;3122;48.208;11.174;2023-08-06T18:05:09;12.60;1.00
6178;DHT22;3122;48.208;11.174;2023-08-06T18:10:14;12.60;1.00
6178;DHT22;3122;48.208;11.174;2023-08-06T18:15:15;12.50;1.00
6178;DHT22;3122;48.208;11.174;2023-08-06T18:20:15;12.60;1.00
6178;DHT22;3122;48.208;11.174;2023-08-06T18:25:16;12.60;1.00
6178;DHT22;3122;48.208;11.174;2023-08-06T18:30:17;12.60;1.00
6178;DHT22;3122;48.208;11.174;2023-08-06T18:35:17;12.60;1.00
6178;DHT22;3122;48.208;11.174;2023-08-06T18:40:18;12.60;1.00
6178;DHT22;3122;48.208;11.174;2023-08-06T18:45:19;12.60;1.00
6178;DHT22;3122;48.208;11.174;2023-08-06T18:50:19;12.50;1.00
6178;DHT22;3122;48.208;11.174;2023-08-06T18:55:20;12.50;1.00
6178;DHT22;3122;48.208;11.174;2023-08-06T19:00:20;12.40;1.00
6178;DHT22;3122;48.208;11.174;2023-08-06T19:05:21;12.30;1.00
6178;DHT22;3122;48.208;11.174;2023-08-06T19:10:22;12.20;1.00
6178;DHT22;3122;48.208;11.174;2023-08-06T19:15:24;12.20;1.00
6178;DHT22;3122;48.208;11.174;2023-08-06T19:20:25;12.10;1.00
6178;DHT22;3122;48.208;11.174;2023-08-06T19:25:25;12.10;1.00
6178;DHT22;3122;48.208;11.174;2023-08-06T19:30:26;12.00;1.00
6178;DHT22;3122;48.208;11.174;2023-08-06T19:35:27;12.00;1.00
6178;DHT22;3122;48.208;11.174;2023-08-06T19:40:28;12.00;1.00
6178;DHT22;3122;48.208;11.174;2023-08-06T19:45:28;11.90;1.00
6178;DHT22;3122;48.208;11.174;2023-08-06T19:50:29;11.90;1.00
6178;DHT22;3122;48.208;11.174;2023-08-06T19:55:29;11.90;1.00
6178;DHT22;3122;48.208;11.174;2023-08-06T20:00:30;11.90;1.00
6178;DHT22;3122;48.208;11.174;2023-08-06T20:05:30;11.80;1.00
6178;DHT22;3122;48.208;11.174;2023-08-06T20:10:31;11.80;1.00
6178;DHT22;3122;48.208;11.174;2023-08-06T20:15:31;11.80;1.00
6178;DHT22;3122;48.208;11.174;2023-08-06T20:20:36;11.70;1.00
6178;DHT22;3122;48.208;11.174;2023-08-06T20:25:37;11.80;1.00
6178;DHT22;3122;48.208;11.174;2023-08-06T20:30:40;11.70;1.00
6178;DHT22;3122;48.208;11.174;2023-08-06T20:35:42;11.70;1.00
6178;DHT22;3122;48.208;11.174;2023-08-06T20:40:42;11.60;1.00
6178;DHT22;3122;48.208;11.174;2023-08-06T20:45:43;11.50;1.00
6178;DHT22;3122;48.208;11.174;2023-08-06T20:50:51;11.50;1.00
6178;DHT22;3122;48.208;11.174;2023-08-06T20:56:03;11.50;1.00
6178;DHT22;3122;48.208;11.174;2023-08-06T21:01:04;11.50;1.00
6178;DHT22;3122;48.208;11.174;2023-08-06T21:06:06;11.40;1.00
6178;DHT22;3122;48.208;11.174;2023-08-06T21:11:07;11.40;1.00
6178;DHT22;3122;48.208;11.174;2023-08-06T21:16:09;11.40;1.00
6178;DHT22;3122;48.208;11.174;2023-08-06T21:21:09;11.40;1.00
6178;DHT22;3122;48.208;11.174;2023-08-06T21:26:10;11.40;1.00
6178;DHT22;3122;48.208;11.174;2023-08-06T21:31:12;11.40;1.00
6178;DHT22;3122;48.208;11.174;2023-08-06T21:36:12;11.50;1.00
6178;DHT22;3122;48.208;11.174;2023-08-06T21:41:15;11.40;1.00
6178;DHT22;3122;48.208;11.174;2023-08-06T21:46:17;11.40;1.00
6178;DHT22;3122;48.208;11.174;2023-08-06T21:51:19;11.50;1.00
6178;DHT22;3122;48.208;11.174;2023-08-06T21:56:20;11.60;1.00
6178;DHT22;3122;48.208;11.174;2023-08-06T22:01:20;11.60;1.00
6178;DHT22;3122;48.208;11.174;2023-08-06T22:06:21;11.60;1.00
6178;DHT22;3122;48.208;11.174;2023-08-06T22:11:22;11.50;1.00
6178;DHT22;3122;48.208;11.174;2023-08-06T22:16:23;11.60;1.00
6178;DHT22;3122;48.208;11.174;2023-08-06T22:21:23;11.60;1.00
6178;DHT22;3122;48.208;11.174;2023-08-06T22:26:24;11.50;1.00
6178;DHT22;3122;48.208;11.174;2023-08-06T22:31:24;11.60;1.00
6178;DHT22;3122;48.208;11.174;2023-08-06T22:36:25;11.60;1.00
6178;DHT22;3122;48.208;11.174;2023-08-06T22:41:26;11.60;1.00
6178;DHT22;3122;48.208;11.174;2023-08-06T22:46:27;11.60;1.00
6178;DHT22;3122;48.208;11.174;2023-08-06T22:51:27;11.50;1.00
6178;DHT22;3122;48.208;11.174;2023-08-06T22:56:28;11.50;1.00
6178;DHT22;3122;48.208;11.174;2023-08-06T23:01:28;11.50;1.00
6178;DHT22;3122;48.208;11.174;2023-08-06T23:06:29;11.50;1.00
6178;DHT22;3122;48.208;11.174;2023-08-06T23:11:30;11.50;1.00
6178;DHT22;3122;48.208;11.174;2023-08-06T23:16:30;11.60;1.00
6178;DHT22;3122;48.208;11.174;2023-08-06T23:21:31;11.50;1.00
6178;DHT22;3122;48.208;11.174;2023-08-06T23:26:32;11.50;1.00
6178;DHT22;3122;48.208;11.174;2023-08-06T23:31:32;11.50;1.00
6178;DHT22;3122;48.208;11.174;2023-08-06T23:36:33;11.50;1.00
6178;DHT22;3122;48.208;11.174;2023-08-06T23:41:34;11.40;1.00
6178;DHT22;3122;48.208;11.174;2023-08-06T23:46:34;11.40;1.00
6178;DHT22;3122;48.208;11.174;2023-08-06T23:51:36;11.30;1.00
6178;DHT22;3122;48.208;11.174;2023-08-06T23:56:36;11.20;1.00
